sensor_id;sensor_type;location;lat;lon;timestamp;P1;durP1;ratioP1;P2;durP2;ratioP2
10882;SDS011;5494;51.796;10.952;2023-02-10T00:01:39;14.93;;;9.73;;
10882;SDS011;5494;51.796;10.952;2023-02-10T00:04:07;14.67;;;9.57;;
10882;SDS011;5494;51.796;10.952;2023-02-10T00:06:38;15.43;;;8.93;;
10882;SDS011;5494;51.796;10.952;2023-02-10T00:09:09;13.07;;;8.47;;
10882;SDS011;5494;51.796;10.952;2023-02-10T00:11:40;14.80;;;9.20;;
10882;SDS011;5494;51.796;10.952;2023-02-10T00:14:26;15.77;;;9.67;;
10882;SDS011;5494;51.796;10.952;2023-02-10T00:16:56;15.13;;;9.63;;
10882;SDS011;5494;51.796;10.952;2023-02-10T00:19:25;16.60;;;10.18;;
10882;SDS011;5494;51.796;10.952;2023-02-10T00:21:54;16.40;;;10.10;;
10882;SDS011;5494;51.796;10.952;2023-02-10T00:24:23;19.67;;;9.77;;
10882;SDS011;5494;51.796;10.952;2023-02-10T00:26:51;15.60;;;10.37;;
10882;SDS011;5494;51.796;10.952;2023-02-10T00:29:19;16.90;;;9.87;;
10882;SDS011;5494;51.796;10.952;2023-02-10T00:31:47;17.70;;;10.87;;
10882;SDS011;5494;51.796;10.952;2023-02-10T00:34:16;16.07;;;10.43;;
10882;SDS011;5494;51.796;10.952;2023-02-10T00:36:44;16.93;;;10.23;;
10882;SDS011;5494;51.796;10.952;2023-02-10T00:39:13;14.03;;;10.10;;
10882;SDS011;5494;51.796;10.952;2023-02-10T00:41:43;20.63;;;11.13;;
10882;SDS011;5494;51.796;10.952;2023-02-10T00:44:11;18.50;;;11.00;;
10882;SDS011;5494;51.796;10.952;2023-02-10T00:46:39;16.70;;;10.53;;
10882;SDS011;5494;51.796;10.952;2023-02-10T00:49:08;15.63;;;10.67;;
10882;SDS011;5494;51.796;10.952;2023-02-10T00:51:38;17.33;;;11.13;;
10882;SDS011;5494;51.796;10.952;2023-02-10T00:54:06;18.77;;;11.47;;
10882;SDS011;5494;51.796;10.952;2023-02-10T00:56:35;19.33;;;10.60;;
10882;SDS011;5494;51.796;10.952;2023-02-10T00:59:04;19.17;;;12.33;;
10882;SDS011;5494;51.796;10.952;2023-02-10T01:01:34;16.70;;;11.40;;
10882;SDS011;5494;51.796;10.952;2023-02-10T01:04:02;18.83;;;11.30;;
10882;SDS011;5494;51.796;10.952;2023-02-10T01:06:30;19.43;;;11.40;;
10882;SDS011;5494;51.796;10.952;2023-02-10T01:08:59;20.70;;;12.20;;
10882;SDS011;5494;51.796;10.952;2023-02-10T01:11:26;17.40;;;11.40;;
10882;SDS011;5494;51.796;10.952;2023-02-10T01:13:54;19.10;;;11.83;;
10882;SDS011;5494;51.796;10.952;2023-02-10T01:16:24;19.47;;;12.30;;
10882;SDS011;5494;51.796;10.952;2023-02-10T01:18:52;18.60;;;12.60;;
10882;SDS011;5494;51.796;10.952;2023-02-10T01:21:23;21.83;;;12.80;;
10882;SDS011;5494;51.796;10.952;2023-02-10T01:23:51;18.97;;;12.13;;
10882;SDS011;5494;51.796;10.952;2023-02-10T01:26:19;20.03;;;11.80;;
10882;SDS011;5494;51.796;10.952;2023-02-10T01:28:46;20.50;;;11.97;;
10882;SDS011;5494;51.796;10.952;2023-02-10T01:31:15;18.90;;;12.37;;
10882;SDS011;5494;51.796;10.952;2023-02-10T01:33:49;24.10;;;13.20;;
10882;SDS011;5494;51.796;10.952;2023-02-10T01:36:20;24.07;;;13.50;;
10882;SDS011;5494;51.796;10.952;2023-02-10T01:38:51;20.03;;;12.47;;
10882;SDS011;5494;51.796;10.952;2023-02-10T01:41:20;19.83;;;13.30;;
10882;SDS011;5494;51.796;10.952;2023-02-10T01:43:56;20.40;;;13.03;;
10882;SDS011;5494;51.796;10.952;2023-02-10T01:46:28;23.47;;;13.13;;
10882;SDS011;5494;51.796;10.952;2023-02-10T01:49:03;21.57;;;14.77;;
10882;SDS011;5494;51.796;10.952;2023-02-10T01:51:37;22.43;;;13.83;;
10882;SDS011;5494;51.796;10.952;2023-02-10T01:54:11;24.63;;;14.37;;
10882;SDS011;5494;51.796;10.952;2023-02-10T01:56:47;24.57;;;13.37;;
10882;SDS011;5494;51.796;10.952;2023-02-10T01:59:16;25.17;;;14.53;;
10882;SDS011;5494;51.796;10.952;2023-02-10T02:01:48;25.27;;;14.47;;
10882;SDS011;5494;51.796;10.952;2023-02-10T02:04:18;24.30;;;14.27;;
10882;SDS011;5494;51.796;10.952;2023-02-10T02:06:46;24.20;;;13.97;;
10882;SDS011;5494;51.796;10.952;2023-02-10T02:09:15;22.90;;;13.77;;
10882;SDS011;5494;51.796;10.952;2023-02-10T02:11:45;25.50;;;15.38;;
10882;SDS011;5494;51.796;10.952;2023-02-10T02:14:28;24.85;;;15.63;;
10882;SDS011;5494;51.796;10.952;2023-02-10T02:17:05;26.33;;;14.38;;
10882;SDS011;5494;51.796;10.952;2023-02-10T02:19:56;24.48;;;13.82;;
10882;SDS011;5494;51.796;10.952;2023-02-10T02:23:15;24.30;;;14.77;;
10882;SDS011;5494;51.796;10.952;2023-02-10T02:26:18;24.80;;;13.80;;
10882;SDS011;5494;51.796;10.952;2023-02-10T02:29:10;25.52;;;14.23;;
10882;SDS011;5494;51.796;10.952;2023-02-10T02:32:11;29.45;;;15.07;;
10882;SDS011;5494;51.796;10.952;2023-02-10T02:34:46;27.80;;;15.80;;
10882;SDS011;5494;51.796;10.952;2023-02-10T02:37:21;27.67;;;15.80;;
10882;SDS011;5494;51.796;10.952;2023-02-10T02:39:56;28.05;;;15.80;;
10882;SDS011;5494;51.796;10.952;2023-02-10T02:42:25;29.75;;;15.93;;
10882;SDS011;5494;51.796;10.952;2023-02-10T02:44:57;28.67;;;16.45;;
10882;SDS011;5494;51.796;10.952;2023-02-10T02:47:40;28.10;;;16.55;;
10882;SDS011;5494;51.796;10.952;2023-02-10T02:50:26;31.02;;;15.82;;
10882;SDS011;5494;51.796;10.952;2023-02-10T02:53:08;33.17;;;16.67;;
10882;SDS011;5494;51.796;10.952;2023-02-10T02:55:50;32.72;;;16.98;;
10882;SDS011;5494;51.796;10.952;2023-02-10T02:58:33;31.05;;;17.40;;
10882;SDS011;5494;51.796;10.952;2023-02-10T03:01:19;34.83;;;18.30;;
10882;SDS011;5494;51.796;10.952;2023-02-10T03:03:57;33.10;;;18.00;;
10882;SDS011;5494;51.796;10.952;2023-02-10T03:06:26;30.77;;;17.70;;
10882;SDS011;5494;51.796;10.952;2023-02-10T03:08:54;35.53;;;18.37;;
10882;SDS011;5494;51.796;10.952;2023-02-10T03:11:22;34.03;;;18.13;;
10882;SDS011;5494;51.796;10.952;2023-02-10T03:13:50;31.17;;;17.90;;
10882;SDS011;5494;51.796;10.952;2023-02-10T03:16:18;31.67;;;17.95;;
10882;SDS011;5494;51.796;10.952;2023-02-10T03:18:46;34.43;;;16.77;;
10882;SDS011;5494;51.796;10.952;2023-02-10T03:21:16;36.10;;;16.73;;
10882;SDS011;5494;51.796;10.952;2023-02-10T03:23:44;30.50;;;16.13;;
10882;SDS011;5494;51.796;10.952;2023-02-10T03:26:12;33.87;;;17.47;;
10882;SDS011;5494;51.796;10.952;2023-02-10T03:28:40;32.43;;;17.60;;
10882;SDS011;5494;51.796;10.952;2023-02-10T03:31:08;37.23;;;16.97;;
10882;SDS011;5494;51.796;10.952;2023-02-10T03:33:36;30.57;;;16.67;;
10882;SDS011;5494;51.796;10.952;2023-02-10T03:36:04;31.87;;;17.00;;
10882;SDS011;5494;51.796;10.952;2023-02-10T03:38:34;31.20;;;16.90;;
10882;SDS011;5494;51.796;10.952;2023-02-10T03:41:02;29.30;;;16.65;;
10882;SDS011;5494;51.796;10.952;2023-02-10T03:43:31;32.23;;;17.00;;
10882;SDS011;5494;51.796;10.952;2023-02-10T03:46:00;32.40;;;17.03;;
10882;SDS011;5494;51.796;10.952;2023-02-10T03:48:29;30.03;;;16.90;;
10882;SDS011;5494;51.796;10.952;2023-02-10T03:50:58;32.83;;;17.20;;
10882;SDS011;5494;51.796;10.952;2023-02-10T03:53:28;32.60;;;16.83;;
10882;SDS011;5494;51.796;10.952;2023-02-10T03:55:58;31.27;;;16.70;;
10882;SDS011;5494;51.796;10.952;2023-02-10T03:58:29;32.97;;;16.93;;
10882;SDS011;5494;51.796;10.952;2023-02-10T04:00:57;34.80;;;17.47;;
10882;SDS011;5494;51.796;10.952;2023-02-10T04:03:25;32.17;;;17.17;;
10882;SDS011;5494;51.796;10.952;2023-02-10T04:05:53;32.07;;;16.43;;
10882;SDS011;5494;51.796;10.952;2023-02-10T04:08:23;29.57;;;15.93;;
10882;SDS011;5494;51.796;10.952;2023-02-10T04:10:51;28.23;;;15.57;;
10882;SDS011;5494;51.796;10.952;2023-02-10T04:13:20;34.43;;;16.93;;
10882;SDS011;5494;51.796;10.952;2023-02-10T04:15:48;29.20;;;15.53;;
10882;SDS011;5494;51.796;10.952;2023-02-10T04:18:27;30.40;;;15.70;;
10882;SDS011;5494;51.796;10.952;2023-02-10T04:20:55;31.67;;;16.73;;
10882;SDS011;5494;51.796;10.952;2023-02-10T04:23:23;29.70;;;15.97;;
10882;SDS011;5494;51.796;10.952;2023-02-10T04:25:51;32.03;;;15.40;;
10882;SDS011;5494;51.796;10.952;2023-02-10T04:28:20;33.57;;;16.20;;
10882;SDS011;5494;51.796;10.952;2023-02-10T04:30:50;32.93;;;16.87;;
10882;SDS011;5494;51.796;10.952;2023-02-10T04:33:18;33.43;;;16.33;;
10882;SDS011;5494;51.796;10.952;2023-02-10T04:35:46;33.80;;;16.10;;
10882;SDS011;5494;51.796;10.952;2023-02-10T04:38:15;31.93;;;15.83;;
10882;SDS011;5494;51.796;10.952;2023-02-10T04:40:43;32.73;;;16.77;;
10882;SDS011;5494;51.796;10.952;2023-02-10T04:43:12;32.55;;;16.25;;
10882;SDS011;5494;51.796;10.952;2023-02-10T04:45:41;34.23;;;17.13;;
10882;SDS011;5494;51.796;10.952;2023-02-10T04:48:10;49.43;;;22.23;;
10882;SDS011;5494;51.796;10.952;2023-02-10T04:50:39;46.87;;;22.67;;
10882;SDS011;5494;51.796;10.952;2023-02-10T04:53:07;41.92;;;19.48;;
10882;SDS011;5494;51.796;10.952;2023-02-10T04:55:36;46.77;;;22.10;;
10882;SDS011;5494;51.796;10.952;2023-02-10T04:58:04;35.83;;;17.85;;
10882;SDS011;5494;51.796;10.952;2023-02-10T05:00:32;33.13;;;16.80;;
10882;SDS011;5494;51.796;10.952;2023-02-10T05:03:02;32.57;;;15.30;;
10882;SDS011;5494;51.796;10.952;2023-02-10T05:05:30;30.80;;;16.27;;
10882;SDS011;5494;51.796;10.952;2023-02-10T05:07:58;31.08;;;15.85;;
10882;SDS011;5494;51.796;10.952;2023-02-10T05:10:26;32.70;;;15.93;;
10882;SDS011;5494;51.796;10.952;2023-02-10T05:12:54;33.95;;;16.67;;
10882;SDS011;5494;51.796;10.952;2023-02-10T05:15:22;28.60;;;16.07;;
10882;SDS011;5494;51.796;10.952;2023-02-10T05:17:50;37.20;;;16.65;;
10882;SDS011;5494;51.796;10.952;2023-02-10T05:20:19;33.92;;;16.65;;
10882;SDS011;5494;51.796;10.952;2023-02-10T05:22:47;36.47;;;17.50;;
10882;SDS011;5494;51.796;10.952;2023-02-10T05:25:15;37.45;;;16.17;;
10882;SDS011;5494;51.796;10.952;2023-02-10T05:27:43;36.63;;;16.52;;
10882;SDS011;5494;51.796;10.952;2023-02-10T05:30:12;36.55;;;16.77;;
10882;SDS011;5494;51.796;10.952;2023-02-10T05:32:40;35.33;;;17.52;;
10882;SDS011;5494;51.796;10.952;2023-02-10T05:35:09;34.85;;;16.48;;
10882;SDS011;5494;51.796;10.952;2023-02-10T05:37:38;35.88;;;18.35;;
10882;SDS011;5494;51.796;10.952;2023-02-10T05:40:07;39.78;;;18.73;;
10882;SDS011;5494;51.796;10.952;2023-02-10T05:42:36;37.20;;;17.75;;
10882;SDS011;5494;51.796;10.952;2023-02-10T05:45:04;42.58;;;19.80;;
10882;SDS011;5494;51.796;10.952;2023-02-10T05:47:32;36.00;;;18.08;;
10882;SDS011;5494;51.796;10.952;2023-02-10T05:50:00;38.08;;;18.60;;
10882;SDS011;5494;51.796;10.952;2023-02-10T05:52:28;33.67;;;17.23;;
10882;SDS011;5494;51.796;10.952;2023-02-10T05:54:57;37.17;;;16.98;;
10882;SDS011;5494;51.796;10.952;2023-02-10T05:57:25;37.25;;;17.33;;
10882;SDS011;5494;51.796;10.952;2023-02-10T05:59:53;33.22;;;17.42;;
10882;SDS011;5494;51.796;10.952;2023-02-10T06:02:21;35.65;;;17.65;;
10882;SDS011;5494;51.796;10.952;2023-02-10T06:04:48;39.78;;;18.05;;
10882;SDS011;5494;51.796;10.952;2023-02-10T06:07:16;36.97;;;17.58;;
10882;SDS011;5494;51.796;10.952;2023-02-10T06:09:45;39.08;;;19.10;;
10882;SDS011;5494;51.796;10.952;2023-02-10T06:12:14;36.00;;;19.13;;
10882;SDS011;5494;51.796;10.952;2023-02-10T06:14:42;41.70;;;19.85;;
10882;SDS011;5494;51.796;10.952;2023-02-10T06:17:10;42.10;;;20.23;;
10882;SDS011;5494;51.796;10.952;2023-02-10T06:19:38;43.35;;;19.45;;
10882;SDS011;5494;51.796;10.952;2023-02-10T06:22:07;38.30;;;19.35;;
10882;SDS011;5494;51.796;10.952;2023-02-10T06:24:37;42.88;;;19.52;;
10882;SDS011;5494;51.796;10.952;2023-02-10T06:27:07;40.75;;;19.77;;
10882;SDS011;5494;51.796;10.952;2023-02-10T06:29:37;35.90;;;18.35;;
10882;SDS011;5494;51.796;10.952;2023-02-10T06:32:04;35.85;;;17.67;;
10882;SDS011;5494;51.796;10.952;2023-02-10T06:34:32;35.50;;;17.98;;
10882;SDS011;5494;51.796;10.952;2023-02-10T06:37:00;38.92;;;18.50;;
10882;SDS011;5494;51.796;10.952;2023-02-10T06:39:28;36.80;;;17.88;;
10882;SDS011;5494;51.796;10.952;2023-02-10T06:41:57;39.53;;;18.67;;
10882;SDS011;5494;51.796;10.952;2023-02-10T06:44:27;39.83;;;19.67;;
10882;SDS011;5494;51.796;10.952;2023-02-10T06:46:56;39.97;;;18.92;;
10882;SDS011;5494;51.796;10.952;2023-02-10T06:49:24;40.40;;;19.42;;
10882;SDS011;5494;51.796;10.952;2023-02-10T06:51:52;38.55;;;19.50;;
10882;SDS011;5494;51.796;10.952;2023-02-10T06:54:21;33.97;;;17.65;;
10882;SDS011;5494;51.796;10.952;2023-02-10T06:56:52;38.65;;;18.15;;
10882;SDS011;5494;51.796;10.952;2023-02-10T06:59:20;34.75;;;18.90;;
10882;SDS011;5494;51.796;10.952;2023-02-10T07:01:49;37.42;;;17.60;;
10882;SDS011;5494;51.796;10.952;2023-02-10T07:04:21;34.53;;;17.10;;
10882;SDS011;5494;51.796;10.952;2023-02-10T07:06:48;35.80;;;18.90;;
10882;SDS011;5494;51.796;10.952;2023-02-10T07:09:16;28.95;;;15.10;;
10882;SDS011;5494;51.796;10.952;2023-02-10T07:11:44;34.33;;;16.77;;
10882;SDS011;5494;51.796;10.952;2023-02-10T07:14:12;33.40;;;16.15;;
10882;SDS011;5494;51.796;10.952;2023-02-10T07:16:40;34.05;;;16.73;;
10882;SDS011;5494;51.796;10.952;2023-02-10T07:19:08;28.42;;;15.50;;
10882;SDS011;5494;51.796;10.952;2023-02-10T07:21:38;34.47;;;16.30;;
10882;SDS011;5494;51.796;10.952;2023-02-10T07:24:06;31.17;;;15.27;;
10882;SDS011;5494;51.796;10.952;2023-02-10T07:26:34;35.80;;;15.97;;
10882;SDS011;5494;51.796;10.952;2023-02-10T07:29:02;32.10;;;16.55;;
10882;SDS011;5494;51.796;10.952;2023-02-10T07:31:30;32.07;;;15.57;;
10882;SDS011;5494;51.796;10.952;2023-02-10T07:34:01;28.97;;;15.90;;
10882;SDS011;5494;51.796;10.952;2023-02-10T07:36:29;31.83;;;17.77;;
10882;SDS011;5494;51.796;10.952;2023-02-10T07:38:58;36.33;;;18.10;;
10882;SDS011;5494;51.796;10.952;2023-02-10T07:41:26;29.47;;;16.73;;
10882;SDS011;5494;51.796;10.952;2023-02-10T07:43:54;29.13;;;15.87;;
10882;SDS011;5494;51.796;10.952;2023-02-10T07:46:22;32.93;;;16.60;;
10882;SDS011;5494;51.796;10.952;2023-02-10T07:48:50;32.60;;;15.57;;
10882;SDS011;5494;51.796;10.952;2023-02-10T07:51:19;27.33;;;15.30;;
10882;SDS011;5494;51.796;10.952;2023-02-10T07:53:47;33.73;;;16.17;;
10882;SDS011;5494;51.796;10.952;2023-02-10T07:56:16;29.40;;;15.17;;
10882;SDS011;5494;51.796;10.952;2023-02-10T07:58:44;32.50;;;13.90;;
10882;SDS011;5494;51.796;10.952;2023-02-10T08:01:12;27.20;;;14.17;;
10882;SDS011;5494;51.796;10.952;2023-02-10T08:03:40;30.00;;;15.37;;
10882;SDS011;5494;51.796;10.952;2023-02-10T08:06:08;25.57;;;14.07;;
10882;SDS011;5494;51.796;10.952;2023-02-10T08:08:37;29.30;;;14.30;;
10882;SDS011;5494;51.796;10.952;2023-02-10T08:11:05;28.33;;;16.27;;
10882;SDS011;5494;51.796;10.952;2023-02-10T08:13:34;28.07;;;13.97;;
10882;SDS011;5494;51.796;10.952;2023-02-10T08:16:03;25.97;;;15.10;;
10882;SDS011;5494;51.796;10.952;2023-02-10T08:18:34;24.70;;;14.30;;
10882;SDS011;5494;51.796;10.952;2023-02-10T08:21:02;27.53;;;14.57;;
10882;SDS011;5494;51.796;10.952;2023-02-10T08:23:30;26.07;;;13.77;;
10882;SDS011;5494;51.796;10.952;2023-02-10T08:26:04;26.57;;;14.83;;
10882;SDS011;5494;51.796;10.952;2023-02-10T08:28:35;37.63;;;16.30;;
10882;SDS011;5494;51.796;10.952;2023-02-10T08:31:05;32.73;;;16.50;;
10882;SDS011;5494;51.796;10.952;2023-02-10T08:33:36;28.50;;;15.87;;
10882;SDS011;5494;51.796;10.952;2023-02-10T08:36:13;30.30;;;15.57;;
10882;SDS011;5494;51.796;10.952;2023-02-10T08:38:44;31.97;;;15.10;;
10882;SDS011;5494;51.796;10.952;2023-02-10T08:41:13;27.10;;;15.07;;
10882;SDS011;5494;51.796;10.952;2023-02-10T08:43:43;33.43;;;16.17;;
10882;SDS011;5494;51.796;10.952;2023-02-10T08:46:12;30.23;;;15.77;;
10882;SDS011;5494;51.796;10.952;2023-02-10T08:48:40;29.37;;;15.23;;
10882;SDS011;5494;51.796;10.952;2023-02-10T08:51:09;29.73;;;15.90;;
10882;SDS011;5494;51.796;10.952;2023-02-10T08:53:39;29.30;;;15.33;;
10882;SDS011;5494;51.796;10.952;2023-02-10T08:56:08;37.13;;;18.60;;
10882;SDS011;5494;51.796;10.952;2023-02-10T08:58:40;34.53;;;17.73;;
10882;SDS011;5494;51.796;10.952;2023-02-10T09:01:10;29.80;;;16.43;;
10882;SDS011;5494;51.796;10.952;2023-02-10T09:03:41;31.57;;;16.83;;
10882;SDS011;5494;51.796;10.952;2023-02-10T09:06:13;29.87;;;16.33;;
10882;SDS011;5494;51.796;10.952;2023-02-10T09:08:45;30.00;;;14.47;;
10882;SDS011;5494;51.796;10.952;2023-02-10T09:11:14;31.07;;;15.43;;
10882;SDS011;5494;51.796;10.952;2023-02-10T09:13:43;32.47;;;15.23;;
10882;SDS011;5494;51.796;10.952;2023-02-10T09:16:13;26.53;;;14.23;;
10882;SDS011;5494;51.796;10.952;2023-02-10T09:18:41;25.50;;;13.27;;
10882;SDS011;5494;51.796;10.952;2023-02-10T09:21:09;22.27;;;13.03;;
10882;SDS011;5494;51.796;10.952;2023-02-10T09:23:37;22.63;;;13.80;;
10882;SDS011;5494;51.796;10.952;2023-02-10T09:26:05;23.30;;;12.47;;
10882;SDS011;5494;51.796;10.952;2023-02-10T09:28:34;23.53;;;11.57;;
10882;SDS011;5494;51.796;10.952;2023-02-10T09:31:03;18.47;;;10.57;;
10882;SDS011;5494;51.796;10.952;2023-02-10T09:33:34;20.00;;;11.07;;
10882;SDS011;5494;51.796;10.952;2023-02-10T09:36:02;22.33;;;11.13;;
10882;SDS011;5494;51.796;10.952;2023-02-10T09:38:32;19.13;;;10.30;;
10882;SDS011;5494;51.796;10.952;2023-02-10T09:41:03;15.60;;;9.83;;
10882;SDS011;5494;51.796;10.952;2023-02-10T09:43:57;17.87;;;9.27;;
10882;SDS011;5494;51.796;10.952;2023-02-10T09:46:41;14.13;;;9.00;;
10882;SDS011;5494;51.796;10.952;2023-02-10T09:49:33;14.37;;;8.70;;
10882;SDS011;5494;51.796;10.952;2023-02-10T09:52:24;15.27;;;10.93;;
10882;SDS011;5494;51.796;10.952;2023-02-10T09:55:08;15.63;;;8.87;;
10882;SDS011;5494;51.796;10.952;2023-02-10T09:57:44;14.60;;;9.93;;
10882;SDS011;5494;51.796;10.952;2023-02-10T10:00:20;13.90;;;8.00;;
10882;SDS011;5494;51.796;10.952;2023-02-10T10:02:56;12.07;;;7.87;;
10882;SDS011;5494;51.796;10.952;2023-02-10T10:05:35;13.83;;;9.67;;
10882;SDS011;5494;51.796;10.952;2023-02-10T10:08:14;15.17;;;9.43;;
10882;SDS011;5494;51.796;10.952;2023-02-10T10:10:50;15.00;;;9.63;;
10882;SDS011;5494;51.796;10.952;2023-02-10T10:13:20;16.37;;;9.97;;
10882;SDS011;5494;51.796;10.952;2023-02-10T10:16:04;14.20;;;8.77;;
10882;SDS011;5494;51.796;10.952;2023-02-10T10:18:47;14.83;;;8.03;;
10882;SDS011;5494;51.796;10.952;2023-02-10T10:21:39;15.43;;;8.73;;
10882;SDS011;5494;51.796;10.952;2023-02-10T10:24:25;15.70;;;9.23;;
10882;SDS011;5494;51.796;10.952;2023-02-10T10:27:11;13.13;;;8.70;;
10882;SDS011;5494;51.796;10.952;2023-02-10T10:29:52;13.33;;;8.80;;
10882;SDS011;5494;51.796;10.952;2023-02-10T10:32:26;12.33;;;8.17;;
10882;SDS011;5494;51.796;10.952;2023-02-10T10:35:11;14.17;;;8.40;;
10882;SDS011;5494;51.796;10.952;2023-02-10T10:37:46;15.47;;;8.97;;
10882;SDS011;5494;51.796;10.952;2023-02-10T10:40:16;12.33;;;8.83;;
10882;SDS011;5494;51.796;10.952;2023-02-10T10:42:49;13.67;;;9.13;;
10882;SDS011;5494;51.796;10.952;2023-02-10T10:45:26;17.37;;;9.37;;
10882;SDS011;5494;51.796;10.952;2023-02-10T10:48:01;15.07;;;8.57;;
10882;SDS011;5494;51.796;10.952;2023-02-10T10:50:38;22.47;;;9.43;;
10882;SDS011;5494;51.796;10.952;2023-02-10T10:53:13;12.70;;;8.20;;
10882;SDS011;5494;51.796;10.952;2023-02-10T10:55:47;13.30;;;8.40;;
10882;SDS011;5494;51.796;10.952;2023-02-10T10:58:23;17.90;;;10.23;;
10882;SDS011;5494;51.796;10.952;2023-02-10T11:00:55;17.50;;;10.10;;
10882;SDS011;5494;51.796;10.952;2023-02-10T11:03:25;15.97;;;9.70;;
10882;SDS011;5494;51.796;10.952;2023-02-10T11:05:59;18.67;;;11.37;;
10882;SDS011;5494;51.796;10.952;2023-02-10T11:08:34;20.20;;;12.13;;
10882;SDS011;5494;51.796;10.952;2023-02-10T11:11:08;20.50;;;10.80;;
10882;SDS011;5494;51.796;10.952;2023-02-10T11:14:09;17.80;;;11.03;;
10882;SDS011;5494;51.796;10.952;2023-02-10T11:16:42;17.73;;;10.80;;
10882;SDS011;5494;51.796;10.952;2023-02-10T11:19:20;21.93;;;12.90;;
10882;SDS011;5494;51.796;10.952;2023-02-10T11:21:50;24.93;;;12.47;;
10882;SDS011;5494;51.796;10.952;2023-02-10T11:24:22;21.00;;;13.40;;
10882;SDS011;5494;51.796;10.952;2023-02-10T11:26:57;21.07;;;12.90;;
10882;SDS011;5494;51.796;10.952;2023-02-10T11:29:29;22.03;;;12.50;;
10882;SDS011;5494;51.796;10.952;2023-02-10T11:31:59;20.80;;;13.30;;
10882;SDS011;5494;51.796;10.952;2023-02-10T11:34:28;24.00;;;12.33;;
10882;SDS011;5494;51.796;10.952;2023-02-10T11:37:08;14.50;;;9.67;;
10882;SDS011;5494;51.796;10.952;2023-02-10T11:39:42;20.27;;;11.17;;
10882;SDS011;5494;51.796;10.952;2023-02-10T11:42:16;20.87;;;11.90;;
10882;SDS011;5494;51.796;10.952;2023-02-10T11:44:52;20.33;;;12.30;;
10882;SDS011;5494;51.796;10.952;2023-02-10T11:47:24;18.97;;;11.83;;
10882;SDS011;5494;51.796;10.952;2023-02-10T11:49:53;22.03;;;13.60;;
10882;SDS011;5494;51.796;10.952;2023-02-10T11:52:23;23.30;;;13.60;;
10882;SDS011;5494;51.796;10.952;2023-02-10T11:54:57;19.47;;;12.60;;
10882;SDS011;5494;51.796;10.952;2023-02-10T11:57:29;21.93;;;12.80;;
10882;SDS011;5494;51.796;10.952;2023-02-10T12:00:30;21.17;;;12.50;;
10882;SDS011;5494;51.796;10.952;2023-02-10T12:03:16;21.00;;;11.77;;
10882;SDS011;5494;51.796;10.952;2023-02-10T12:06:15;20.67;;;11.27;;
10882;SDS011;5494;51.796;10.952;2023-02-10T12:09:05;21.33;;;12.07;;
10882;SDS011;5494;51.796;10.952;2023-02-10T12:11:50;18.87;;;12.03;;
10882;SDS011;5494;51.796;10.952;2023-02-10T12:14:38;16.80;;;10.33;;
10882;SDS011;5494;51.796;10.952;2023-02-10T12:17:23;16.70;;;10.40;;
10882;SDS011;5494;51.796;10.952;2023-02-10T12:19:59;18.43;;;9.37;;
10882;SDS011;5494;51.796;10.952;2023-02-10T12:22:58;16.57;;;9.83;;
10882;SDS011;5494;51.796;10.952;2023-02-10T12:25:49;19.03;;;9.87;;
10882;SDS011;5494;51.796;10.952;2023-02-10T12:28:31;18.60;;;11.07;;
10882;SDS011;5494;51.796;10.952;2023-02-10T12:31:18;22.30;;;12.30;;
10882;SDS011;5494;51.796;10.952;2023-02-10T12:34:03;19.60;;;11.87;;
10882;SDS011;5494;51.796;10.952;2023-02-10T12:37:10;25.57;;;12.00;;
10882;SDS011;5494;51.796;10.952;2023-02-10T12:39:55;20.43;;;11.40;;
10882;SDS011;5494;51.796;10.952;2023-02-10T12:42:45;24.27;;;12.13;;
10882;SDS011;5494;51.796;10.952;2023-02-10T12:45:31;18.83;;;10.87;;
10882;SDS011;5494;51.796;10.952;2023-02-10T12:48:09;18.83;;;11.27;;
10882;SDS011;5494;51.796;10.952;2023-02-10T12:50:59;19.10;;;9.47;;
10882;SDS011;5494;51.796;10.952;2023-02-10T12:53:55;20.87;;;11.20;;
10882;SDS011;5494;51.796;10.952;2023-02-10T12:56:30;12.27;;;8.47;;
10882;SDS011;5494;51.796;10.952;2023-02-10T12:59:10;14.87;;;8.77;;
10882;SDS011;5494;51.796;10.952;2023-02-10T13:01:46;15.57;;;8.73;;
10882;SDS011;5494;51.796;10.952;2023-02-10T13:04:21;18.67;;;9.57;;
10882;SDS011;5494;51.796;10.952;2023-02-10T13:06:55;19.77;;;11.30;;
10882;SDS011;5494;51.796;10.952;2023-02-10T13:09:28;20.90;;;11.97;;
10882;SDS011;5494;51.796;10.952;2023-02-10T13:12:10;19.83;;;11.43;;
10882;SDS011;5494;51.796;10.952;2023-02-10T13:14:48;21.67;;;10.97;;
10882;SDS011;5494;51.796;10.952;2023-02-10T13:17:31;21.53;;;11.30;;
10882;SDS011;5494;51.796;10.952;2023-02-10T13:20:13;23.70;;;12.40;;
10882;SDS011;5494;51.796;10.952;2023-02-10T13:23:06;23.10;;;13.93;;
10882;SDS011;5494;51.796;10.952;2023-02-10T13:25:55;21.77;;;12.63;;
10882;SDS011;5494;51.796;10.952;2023-02-10T13:28:43;20.20;;;11.60;;
10882;SDS011;5494;51.796;10.952;2023-02-10T13:31:27;24.27;;;12.87;;
10882;SDS011;5494;51.796;10.952;2023-02-10T13:34:20;23.43;;;11.83;;
10882;SDS011;5494;51.796;10.952;2023-02-10T13:36:53;23.83;;;11.87;;
10882;SDS011;5494;51.796;10.952;2023-02-10T13:39:26;24.37;;;13.47;;
10882;SDS011;5494;51.796;10.952;2023-02-10T13:42:07;19.50;;;12.03;;
10882;SDS011;5494;51.796;10.952;2023-02-10T13:44:44;20.67;;;11.47;;
10882;SDS011;5494;51.796;10.952;2023-02-10T13:47:14;21.47;;;12.47;;
10882;SDS011;5494;51.796;10.952;2023-02-10T13:49:56;21.27;;;12.00;;
10882;SDS011;5494;51.796;10.952;2023-02-10T13:52:30;23.00;;;11.13;;
10882;SDS011;5494;51.796;10.952;2023-02-10T13:55:02;21.80;;;12.40;;
10882;SDS011;5494;51.796;10.952;2023-02-10T13:57:54;19.87;;;11.03;;
10882;SDS011;5494;51.796;10.952;2023-02-10T14:00:24;19.90;;;11.40;;
10882;SDS011;5494;51.796;10.952;2023-02-10T14:02:58;23.40;;;12.80;;
10882;SDS011;5494;51.796;10.952;2023-02-10T14:05:33;23.27;;;10.93;;
10882;SDS011;5494;51.796;10.952;2023-02-10T14:08:11;20.27;;;11.90;;
10882;SDS011;5494;51.796;10.952;2023-02-10T14:10:41;21.63;;;10.70;;
10882;SDS011;5494;51.796;10.952;2023-02-10T14:13:20;19.47;;;11.07;;
10882;SDS011;5494;51.796;10.952;2023-02-10T14:15:56;17.47;;;10.43;;
10882;SDS011;5494;51.796;10.952;2023-02-10T14:18:29;16.60;;;10.53;;
10882;SDS011;5494;51.796;10.952;2023-02-10T14:21:01;20.30;;;11.23;;
10882;SDS011;5494;51.796;10.952;2023-02-10T14:23:33;18.23;;;10.17;;
10882;SDS011;5494;51.796;10.952;2023-02-10T14:26:05;17.47;;;10.90;;
10882;SDS011;5494;51.796;10.952;2023-02-10T14:28:41;18.00;;;9.87;;
10882;SDS011;5494;51.796;10.952;2023-02-10T14:31:16;19.53;;;10.83;;
10882;SDS011;5494;51.796;10.952;2023-02-10T14:33:52;18.67;;;11.47;;
10882;SDS011;5494;51.796;10.952;2023-02-10T14:36:24;19.50;;;11.13;;
10882;SDS011;5494;51.796;10.952;2023-02-10T14:38:53;22.13;;;10.17;;
10882;SDS011;5494;51.796;10.952;2023-02-10T14:41:23;18.27;;;10.50;;
10882;SDS011;5494;51.796;10.952;2023-02-10T14:43:55;19.70;;;10.13;;
10882;SDS011;5494;51.796;10.952;2023-02-10T14:46:24;14.83;;;9.07;;
10882;SDS011;5494;51.796;10.952;2023-02-10T14:48:56;19.83;;;9.67;;
10882;SDS011;5494;51.796;10.952;2023-02-10T14:51:30;17.90;;;9.47;;
10882;SDS011;5494;51.796;10.952;2023-02-10T14:54:07;17.47;;;10.00;;
10882;SDS011;5494;51.796;10.952;2023-02-10T14:56:36;18.53;;;9.90;;
10882;SDS011;5494;51.796;10.952;2023-02-10T14:59:04;19.40;;;9.30;;